aviador You're here:

KSHN Decoded Metar

SHELTON in WA, USA
Report Time2017-08-17 01:53:00
UTC Time2017-08-17 01:57:28
Flight Rules vfr VFR
Wind240° at 13 Gusting to 21 kt
W.Decomp.*RWY 23: 12.8 kt HW 2 kt LCW
W.Rank240° ranks 1
Current wind is above 240° avg. (9.3)
Visibility9999 m
Phenomena:N/A
Clouds:N/A
Expected CloudBase > 2,400 ft AGL from Temp-Dew spread
CeilingNone
Temp22°C (ISA +8)
Dew Point16°C (69% RH)
AAT19.3°C
QNH1017 hPa
Density Alt1,253 ft
Elevation269 ft
Report Wrong Elevation
Raw Report
METAR KSHN 170153Z AUTO 24013G21KT 10SM CLR 22/16 A3004 RMK AO2 PK
WND 22026/0104 SLP174 T02220156=

Extra information for KSHN:More info

Metar Taf Metar & Taf Last 4 Metars F.Rules Stats Wind Profile Meteogram Temp Stats Airport Information Weather charts Add Link Nearby VenuesMetar ALERT Operation Metar Decoded Social comments

AIRNAV info for KSHN